sensor_id;sensor_type;location;lat;lon;timestamp;temperature;humidity
15296;DHT22;7749;49.964;7.890;2023-05-18T00:01:41;10.10;1.00
15296;DHT22;7749;49.964;7.890;2023-05-18T00:04:08;9.90;1.00
15296;DHT22;7749;49.964;7.890;2023-05-18T00:06:39;9.90;1.00
15296;DHT22;7749;49.964;7.890;2023-05-18T00:09:07;9.70;1.00
15296;DHT22;7749;49.964;7.890;2023-05-18T00:11:35;9.70;1.00
15296;DHT22;7749;49.964;7.890;2023-05-18T00:14:07;9.60;1.00
15296;DHT22;7749;49.964;7.890;2023-05-18T00:16:34;9.40;1.00
15296;DHT22;7749;49.964;7.890;2023-05-18T00:19:01;9.40;1.00
15296;DHT22;7749;49.964;7.890;2023-05-18T00:21:33;9.40;1.00
15296;DHT22;7749;49.964;7.890;2023-05-18T00:24:01;9.40;1.00
15296;DHT22;7749;49.964;7.890;2023-05-18T00:26:29;9.40;1.00
15296;DHT22;7749;49.964;7.890;2023-05-18T00:28:56;9.30;1.00
15296;DHT22;7749;49.964;7.890;2023-05-18T00:31:24;9.30;1.00
15296;DHT22;7749;49.964;7.890;2023-05-18T00:33:51;9.20;1.00
15296;DHT22;7749;49.964;7.890;2023-05-18T00:36:21;9.10;1.00
15296;DHT22;7749;49.964;7.890;2023-05-18T00:38:49;9.10;1.00
15296;DHT22;7749;49.964;7.890;2023-05-18T00:41:16;9.00;1.00
15296;DHT22;7749;49.964;7.890;2023-05-18T00:43:43;9.00;1.00
15296;DHT22;7749;49.964;7.890;2023-05-18T00:46:11;8.90;1.00
15296;DHT22;7749;49.964;7.890;2023-05-18T00:48:38;8.90;1.00
15296;DHT22;7749;49.964;7.890;2023-05-18T00:51:06;8.90;1.00
15296;DHT22;7749;49.964;7.890;2023-05-18T00:53:35;9.00;1.00
15296;DHT22;7749;49.964;7.890;2023-05-18T00:56:05;8.80;1.00
15296;DHT22;7749;49.964;7.890;2023-05-18T00:58:33;8.80;1.00
15296;DHT22;7749;49.964;7.890;2023-05-18T01:01:01;8.80;1.00
15296;DHT22;7749;49.964;7.890;2023-05-18T01:03:32;8.70;1.00
15296;DHT22;7749;49.964;7.890;2023-05-18T01:06:00;8.70;1.00
15296;DHT22;7749;49.964;7.890;2023-05-18T01:08:32;8.70;1.00
15296;DHT22;7749;49.964;7.890;2023-05-18T01:11:05;8.80;1.00
15296;DHT22;7749;49.964;7.890;2023-05-18T01:13:57;8.70;1.00
15296;DHT22;7749;49.964;7.890;2023-05-18T01:16:30;8.70;1.00
15296;DHT22;7749;49.964;7.890;2023-05-18T01:19:08;8.60;1.00
15296;DHT22;7749;49.964;7.890;2023-05-18T01:21:55;8.60;1.00
15296;DHT22;7749;49.964;7.890;2023-05-18T01:24:34;8.50;1.00
15296;DHT22;7749;49.964;7.890;2023-05-18T01:27:08;8.50;1.00
15296;DHT22;7749;49.964;7.890;2023-05-18T01:29:36;8.60;1.00
15296;DHT22;7749;49.964;7.890;2023-05-18T01:32:07;8.40;1.00
15296;DHT22;7749;49.964;7.890;2023-05-18T01:34:35;8.30;14.80
15296;DHT22;7749;49.964;7.890;2023-05-18T01:37:04;8.20;31.80
15296;DHT22;7749;49.964;7.890;2023-05-18T01:39:31;8.20;5.20
15296;DHT22;7749;49.964;7.890;2023-05-18T01:42:02;8.10;7.50
15296;DHT22;7749;49.964;7.890;2023-05-18T01:44:39;8.10;13.10
15296;DHT22;7749;49.964;7.890;2023-05-18T01:47:17;8.10;28.10
15296;DHT22;7749;49.964;7.890;2023-05-18T01:49:55;8.00;18.20
15296;DHT22;7749;49.964;7.890;2023-05-18T01:52:32;8.10;5.20
15296;DHT22;7749;49.964;7.890;2023-05-18T01:55:02;8.10;1.00
15296;DHT22;7749;49.964;7.890;2023-05-18T01:57:31;8.10;1.00
15296;DHT22;7749;49.964;7.890;2023-05-18T01:59:59;8.00;1.00
15296;DHT22;7749;49.964;7.890;2023-05-18T02:02:27;8.00;17.80
15296;DHT22;7749;49.964;7.890;2023-05-18T02:04:55;7.90;6.30
15296;DHT22;7749;49.964;7.890;2023-05-18T02:07:22;7.90;27.40
15296;DHT22;7749;49.964;7.890;2023-05-18T02:09:50;8.00;8.80
15296;DHT22;7749;49.964;7.890;2023-05-18T02:12:17;7.90;19.30
15296;DHT22;7749;49.964;7.890;2023-05-18T02:14:44;7.80;44.70
15296;DHT22;7749;49.964;7.890;2023-05-18T02:17:12;7.80;38.60
15296;DHT22;7749;49.964;7.890;2023-05-18T02:19:39;7.80;58.60
15296;DHT22;7749;49.964;7.890;2023-05-18T02:22:07;7.80;48.40
15296;DHT22;7749;49.964;7.890;2023-05-18T02:24:37;7.80;53.60
15296;DHT22;7749;49.964;7.890;2023-05-18T02:27:04;7.80;56.60
15296;DHT22;7749;49.964;7.890;2023-05-18T02:29:32;7.70;53.70
15296;DHT22;7749;49.964;7.890;2023-05-18T02:31:59;7.70;68.80
15296;DHT22;7749;49.964;7.890;2023-05-18T02:34:27;7.60;75.60
15296;DHT22;7749;49.964;7.890;2023-05-18T02:36:59;7.70;62.80
15296;DHT22;7749;49.964;7.890;2023-05-18T02:39:29;7.60;66.00
15296;DHT22;7749;49.964;7.890;2023-05-18T02:42:01;7.60;78.70
15296;DHT22;7749;49.964;7.890;2023-05-18T02:44:28;7.50;80.40
15296;DHT22;7749;49.964;7.890;2023-05-18T02:46:56;7.40;88.00
15296;DHT22;7749;49.964;7.890;2023-05-18T02:49:23;7.40;99.90
15296;DHT22;7749;49.964;7.890;2023-05-18T02:51:50;7.40;99.90
15296;DHT22;7749;49.964;7.890;2023-05-18T02:54:18;7.40;99.90
15296;DHT22;7749;49.964;7.890;2023-05-18T02:56:47;7.40;92.30
15296;DHT22;7749;49.964;7.890;2023-05-18T02:59:15;7.40;64.00
15296;DHT22;7749;49.964;7.890;2023-05-18T03:01:42;7.40;65.60
15296;DHT22;7749;49.964;7.890;2023-05-18T03:04:10;7.40;82.00
15296;DHT22;7749;49.964;7.890;2023-05-18T03:06:37;7.40;29.30
15296;DHT22;7749;49.964;7.890;2023-05-18T03:09:06;7.30;61.20
15296;DHT22;7749;49.964;7.890;2023-05-18T03:11:33;7.30;68.70
15296;DHT22;7749;49.964;7.890;2023-05-18T03:14:01;7.30;76.10
15296;DHT22;7749;49.964;7.890;2023-05-18T03:16:36;7.30;40.20
15296;DHT22;7749;49.964;7.890;2023-05-18T03:19:05;7.40;43.70
15296;DHT22;7749;49.964;7.890;2023-05-18T03:21:33;7.30;99.50
15296;DHT22;7749;49.964;7.890;2023-05-18T03:24:02;7.30;68.10
15296;DHT22;7749;49.964;7.890;2023-05-18T03:26:29;7.30;48.90
15296;DHT22;7749;49.964;7.890;2023-05-18T03:28:58;7.30;14.60
15296;DHT22;7749;49.964;7.890;2023-05-18T03:31:27;7.20;35.30
15296;DHT22;7749;49.964;7.890;2023-05-18T03:33:54;7.10;90.90
15296;DHT22;7749;49.964;7.890;2023-05-18T03:36:22;7.20;83.90
15296;DHT22;7749;49.964;7.890;2023-05-18T03:38:51;7.20;86.30
15296;DHT22;7749;49.964;7.890;2023-05-18T03:41:18;7.10;90.90
15296;DHT22;7749;49.964;7.890;2023-05-18T03:43:46;7.10;96.20
15296;DHT22;7749;49.964;7.890;2023-05-18T03:46:13;7.10;94.90
15296;DHT22;7749;49.964;7.890;2023-05-18T03:48:41;7.10;82.20
15296;DHT22;7749;49.964;7.890;2023-05-18T03:51:08;7.20;92.60
15296;DHT22;7749;49.964;7.890;2023-05-18T03:53:36;7.10;78.80
15296;DHT22;7749;49.964;7.890;2023-05-18T03:56:06;7.00;60.90
15296;DHT22;7749;49.964;7.890;2023-05-18T03:58:34;7.10;23.40
15296;DHT22;7749;49.964;7.890;2023-05-18T04:01:01;7.10;15.70
15296;DHT22;7749;49.964;7.890;2023-05-18T04:03:29;7.10;24.10
15296;DHT22;7749;49.964;7.890;2023-05-18T04:05:56;7.10;90.30
15296;DHT22;7749;49.964;7.890;2023-05-18T04:08:24;7.10;81.30
15296;DHT22;7749;49.964;7.890;2023-05-18T04:10:56;7.00;79.80
15296;DHT22;7749;49.964;7.890;2023-05-18T04:13:23;7.00;60.50
15296;DHT22;7749;49.964;7.890;2023-05-18T04:15:54;7.00;66.10
15296;DHT22;7749;49.964;7.890;2023-05-18T04:18:21;7.10;46.60
15296;DHT22;7749;49.964;7.890;2023-05-18T04:20:48;7.10;28.60
15296;DHT22;7749;49.964;7.890;2023-05-18T04:23:16;7.20;24.80
15296;DHT22;7749;49.964;7.890;2023-05-18T04:25:46;7.20;49.30
15296;DHT22;7749;49.964;7.890;2023-05-18T04:28:15;7.20;27.60
15296;DHT22;7749;49.964;7.890;2023-05-18T04:30:42;7.20;17.00
15296;DHT22;7749;49.964;7.890;2023-05-18T04:33:10;7.20;21.00
15296;DHT22;7749;49.964;7.890;2023-05-18T04:35:39;7.40;1.00
15296;DHT22;7749;49.964;7.890;2023-05-18T04:38:06;7.40;1.00
15296;DHT22;7749;49.964;7.890;2023-05-18T04:40:35;7.50;1.00
15296;DHT22;7749;49.964;7.890;2023-05-18T04:43:09;7.50;1.00
15296;DHT22;7749;49.964;7.890;2023-05-18T04:45:36;7.50;1.00
15296;DHT22;7749;49.964;7.890;2023-05-18T04:48:04;7.60;1.00
15296;DHT22;7749;49.964;7.890;2023-05-18T04:50:32;7.60;1.00
15296;DHT22;7749;49.964;7.890;2023-05-18T04:53:01;7.70;1.00
15296;DHT22;7749;49.964;7.890;2023-05-18T04:55:33;7.60;1.00
15296;DHT22;7749;49.964;7.890;2023-05-18T04:58:01;7.60;1.00
15296;DHT22;7749;49.964;7.890;2023-05-18T05:00:30;7.60;1.00
15296;DHT22;7749;49.964;7.890;2023-05-18T05:03:00;7.70;1.00
15296;DHT22;7749;49.964;7.890;2023-05-18T05:05:28;7.70;1.00
15296;DHT22;7749;49.964;7.890;2023-05-18T05:07:56;7.70;1.00
15296;DHT22;7749;49.964;7.890;2023-05-18T05:10:26;7.70;1.00
15296;DHT22;7749;49.964;7.890;2023-05-18T05:12:54;7.70;1.00
15296;DHT22;7749;49.964;7.890;2023-05-18T05:15:21;7.80;1.00
15296;DHT22;7749;49.964;7.890;2023-05-18T05:17:52;7.80;1.00
15296;DHT22;7749;49.964;7.890;2023-05-18T05:20:19;7.80;1.00
15296;DHT22;7749;49.964;7.890;2023-05-18T05:22:50;8.00;1.00
15296;DHT22;7749;49.964;7.890;2023-05-18T05:25:20;8.00;1.00
15296;DHT22;7749;49.964;7.890;2023-05-18T05:27:48;8.10;1.00
15296;DHT22;7749;49.964;7.890;2023-05-18T05:30:16;8.20;1.00
15296;DHT22;7749;49.964;7.890;2023-05-18T05:32:44;8.20;1.00
15296;DHT22;7749;49.964;7.890;2023-05-18T05:35:11;8.00;1.00
15296;DHT22;7749;49.964;7.890;2023-05-18T05:37:43;8.10;1.00
15296;DHT22;7749;49.964;7.890;2023-05-18T05:40:13;8.30;1.00
15296;DHT22;7749;49.964;7.890;2023-05-18T05:42:41;8.30;1.00
15296;DHT22;7749;49.964;7.890;2023-05-18T05:45:08;8.30;1.00
15296;DHT22;7749;49.964;7.890;2023-05-18T05:47:38;8.30;1.00
15296;DHT22;7749;49.964;7.890;2023-05-18T05:50:06;8.50;1.00
15296;DHT22;7749;49.964;7.890;2023-05-18T05:52:33;8.70;1.00
15296;DHT22;7749;49.964;7.890;2023-05-18T05:55:01;8.80;1.00
15296;DHT22;7749;49.964;7.890;2023-05-18T05:57:28;8.90;1.00
15296;DHT22;7749;49.964;7.890;2023-05-18T05:59:56;8.90;99.90
15296;DHT22;7749;49.964;7.890;2023-05-18T06:02:23;8.90;99.90
15296;DHT22;7749;49.964;7.890;2023-05-18T06:04:50;8.90;99.90
15296;DHT22;7749;49.964;7.890;2023-05-18T06:07:18;9.00;99.90
15296;DHT22;7749;49.964;7.890;2023-05-18T06:09:45;9.10;99.90
15296;DHT22;7749;49.964;7.890;2023-05-18T06:12:12;9.40;1.00
15296;DHT22;7749;49.964;7.890;2023-05-18T06:14:40;9.20;1.00
15296;DHT22;7749;49.964;7.890;2023-05-18T06:17:08;9.20;99.90
15296;DHT22;7749;49.964;7.890;2023-05-18T06:19:35;9.40;99.90
15296;DHT22;7749;49.964;7.890;2023-05-18T06:22:03;9.30;99.90
15296;DHT22;7749;49.964;7.890;2023-05-18T06:24:30;9.40;99.90
15296;DHT22;7749;49.964;7.890;2023-05-18T06:27:01;9.50;99.90
15296;DHT22;7749;49.964;7.890;2023-05-18T06:29:28;9.70;99.90
15296;DHT22;7749;49.964;7.890;2023-05-18T06:31:56;9.40;1.00
15296;DHT22;7749;49.964;7.890;2023-05-18T06:34:24;9.50;1.00
15296;DHT22;7749;49.964;7.890;2023-05-18T06:36:52;9.50;1.00
15296;DHT22;7749;49.964;7.890;2023-05-18T06:39:22;9.50;1.70
15296;DHT22;7749;49.964;7.890;2023-05-18T06:41:50;9.60;1.00
15296;DHT22;7749;49.964;7.890;2023-05-18T06:44:18;9.70;1.00
15296;DHT22;7749;49.964;7.890;2023-05-18T06:46:46;9.70;1.00
15296;DHT22;7749;49.964;7.890;2023-05-18T06:49:15;9.90;1.00
15296;DHT22;7749;49.964;7.890;2023-05-18T06:51:42;10.00;99.90
15296;DHT22;7749;49.964;7.890;2023-05-18T06:54:14;10.10;1.00
15296;DHT22;7749;49.964;7.890;2023-05-18T06:56:42;10.30;1.00
15296;DHT22;7749;49.964;7.890;2023-05-18T06:59:09;10.10;1.00
15296;DHT22;7749;49.964;7.890;2023-05-18T07:01:40;10.10;1.00
15296;DHT22;7749;49.964;7.890;2023-05-18T07:04:07;10.20;14.90
15296;DHT22;7749;49.964;7.890;2023-05-18T07:06:35;10.20;99.90
15296;DHT22;7749;49.964;7.890;2023-05-18T07:09:02;10.20;1.00
15296;DHT22;7749;49.964;7.890;2023-05-18T07:11:32;10.50;1.00
15296;DHT22;7749;49.964;7.890;2023-05-18T07:14:00;10.60;1.00
15296;DHT22;7749;49.964;7.890;2023-05-18T07:16:30;10.70;1.00
15296;DHT22;7749;49.964;7.890;2023-05-18T07:18:57;11.00;99.90
15296;DHT22;7749;49.964;7.890;2023-05-18T07:21:25;11.00;1.00
15296;DHT22;7749;49.964;7.890;2023-05-18T07:23:52;11.10;1.00
15296;DHT22;7749;49.964;7.890;2023-05-18T07:26:19;11.40;4.60
15296;DHT22;7749;49.964;7.890;2023-05-18T07:28:48;11.40;1.00
15296;DHT22;7749;49.964;7.890;2023-05-18T07:31:17;11.70;1.00
15296;DHT22;7749;49.964;7.890;2023-05-18T07:33:47;11.90;1.00
15296;DHT22;7749;49.964;7.890;2023-05-18T07:36:14;12.00;1.00
15296;DHT22;7749;49.964;7.890;2023-05-18T07:38:42;12.30;1.00
15296;DHT22;7749;49.964;7.890;2023-05-18T07:41:10;12.50;1.00
15296;DHT22;7749;49.964;7.890;2023-05-18T07:43:37;12.90;72.90
15296;DHT22;7749;49.964;7.890;2023-05-18T07:46:05;13.20;1.00
15296;DHT22;7749;49.964;7.890;2023-05-18T07:48:35;13.50;99.90
15296;DHT22;7749;49.964;7.890;2023-05-18T07:51:06;13.60;99.90
15296;DHT22;7749;49.964;7.890;2023-05-18T07:53:34;13.80;9.40
15296;DHT22;7749;49.964;7.890;2023-05-18T07:56:06;13.90;1.00
15296;DHT22;7749;49.964;7.890;2023-05-18T07:58:35;13.90;1.00
15296;DHT22;7749;49.964;7.890;2023-05-18T08:01:04;14.10;1.00
15296;DHT22;7749;49.964;7.890;2023-05-18T08:03:32;14.20;1.00
15296;DHT22;7749;49.964;7.890;2023-05-18T08:06:00;14.20;1.00
15296;DHT22;7749;49.964;7.890;2023-05-18T08:08:30;14.20;1.00
15296;DHT22;7749;49.964;7.890;2023-05-18T08:10:58;14.20;1.00
15296;DHT22;7749;49.964;7.890;2023-05-18T08:13:25;14.40;1.00
15296;DHT22;7749;49.964;7.890;2023-05-18T08:15:55;14.50;1.00
15296;DHT22;7749;49.964;7.890;2023-05-18T08:18:37;14.50;1.00
15296;DHT22;7749;49.964;7.890;2023-05-18T08:21:05;14.60;99.90
15296;DHT22;7749;49.964;7.890;2023-05-18T08:23:35;14.60;99.90
15296;DHT22;7749;49.964;7.890;2023-05-18T08:26:03;14.60;99.90
15296;DHT22;7749;49.964;7.890;2023-05-18T08:28:31;14.70;99.90
15296;DHT22;7749;49.964;7.890;2023-05-18T08:30:58;14.90;99.90
15296;DHT22;7749;49.964;7.890;2023-05-18T08:33:25;15.00;99.90
15296;DHT22;7749;49.964;7.890;2023-05-18T08:35:53;15.00;99.90
15296;DHT22;7749;49.964;7.890;2023-05-18T08:38:20;15.00;99.90
15296;DHT22;7749;49.964;7.890;2023-05-18T08:41:05;14.90;99.90
15296;DHT22;7749;49.964;7.890;2023-05-18T08:43:37;15.00;99.90
15296;DHT22;7749;49.964;7.890;2023-05-18T08:46:31;15.10;99.90
15296;DHT22;7749;49.964;7.890;2023-05-18T08:49:00;15.30;99.90
15296;DHT22;7749;49.964;7.890;2023-05-18T08:51:34;15.50;99.90
15296;DHT22;7749;49.964;7.890;2023-05-18T08:54:03;15.60;99.90
15296;DHT22;7749;49.964;7.890;2023-05-18T08:56:32;15.70;99.90
15296;DHT22;7749;49.964;7.890;2023-05-18T08:59:03;15.80;99.90
15296;DHT22;7749;49.964;7.890;2023-05-18T09:01:34;15.90;99.90
15296;DHT22;7749;49.964;7.890;2023-05-18T09:04:03;15.90;99.90
15296;DHT22;7749;49.964;7.890;2023-05-18T09:06:32;16.00;99.90
15296;DHT22;7749;49.964;7.890;2023-05-18T09:09:02;16.10;86.20
15296;DHT22;7749;49.964;7.890;2023-05-18T09:11:32;16.10;80.50
15296;DHT22;7749;49.964;7.890;2023-05-18T09:14:00;16.10;73.30
15296;DHT22;7749;49.964;7.890;2023-05-18T09:16:28;16.30;5.50
15296;DHT22;7749;49.964;7.890;2023-05-18T09:18:56;16.30;1.00
15296;DHT22;7749;49.964;7.890;2023-05-18T09:21:23;16.40;1.00
15296;DHT22;7749;49.964;7.890;2023-05-18T09:23:51;16.50;1.00
15296;DHT22;7749;49.964;7.890;2023-05-18T09:26:19;16.50;1.00
15296;DHT22;7749;49.964;7.890;2023-05-18T09:28:51;16.70;1.00
15296;DHT22;7749;49.964;7.890;2023-05-18T09:31:20;16.80;1.00
15296;DHT22;7749;49.964;7.890;2023-05-18T09:33:48;16.80;1.00
15296;DHT22;7749;49.964;7.890;2023-05-18T09:36:23;16.80;1.00
15296;DHT22;7749;49.964;7.890;2023-05-18T09:38:51;16.90;1.00
15296;DHT22;7749;49.964;7.890;2023-05-18T09:41:19;16.90;1.00
15296;DHT22;7749;49.964;7.890;2023-05-18T09:43:48;17.20;1.00
15296;DHT22;7749;49.964;7.890;2023-05-18T09:46:17;17.40;1.00
15296;DHT22;7749;49.964;7.890;2023-05-18T09:48:49;17.30;1.00
15296;DHT22;7749;49.964;7.890;2023-05-18T09:51:17;17.20;1.00
15296;DHT22;7749;49.964;7.890;2023-05-18T09:56:16;17.50;1.00
15296;DHT22;7749;49.964;7.890;2023-05-18T09:58:44;17.60;1.00
15296;DHT22;7749;49.964;7.890;2023-05-18T10:01:12;17.70;1.00
15296;DHT22;7749;49.964;7.890;2023-05-18T10:03:39;17.70;1.00
15296;DHT22;7749;49.964;7.890;2023-05-18T10:06:08;17.70;1.00
15296;DHT22;7749;49.964;7.890;2023-05-18T10:08:36;17.90;1.00
15296;DHT22;7749;49.964;7.890;2023-05-18T10:11:04;18.00;1.00
15296;DHT22;7749;49.964;7.890;2023-05-18T10:13:33;18.00;1.00
15296;DHT22;7749;49.964;7.890;2023-05-18T10:16:02;17.90;1.00
15296;DHT22;7749;49.964;7.890;2023-05-18T10:18:36;18.00;1.00
15296;DHT22;7749;49.964;7.890;2023-05-18T10:21:05;17.90;1.00
15296;DHT22;7749;49.964;7.890;2023-05-18T10:23:35;18.10;1.00
15296;DHT22;7749;49.964;7.890;2023-05-18T10:26:06;18.20;1.00
15296;DHT22;7749;49.964;7.890;2023-05-18T10:28:41;18.30;1.00
15296;DHT22;7749;49.964;7.890;2023-05-18T10:31:10;18.50;1.00
15296;DHT22;7749;49.964;7.890;2023-05-18T10:33:37;18.60;1.00
15296;DHT22;7749;49.964;7.890;2023-05-18T10:36:05;18.40;1.00
15296;DHT22;7749;49.964;7.890;2023-05-18T10:38:36;18.50;1.00
15296;DHT22;7749;49.964;7.890;2023-05-18T10:41:09;18.50;1.00
15296;DHT22;7749;49.964;7.890;2023-05-18T10:43:40;18.60;1.00
15296;DHT22;7749;49.964;7.890;2023-05-18T10:46:08;18.80;1.00
15296;DHT22;7749;49.964;7.890;2023-05-18T10:48:39;18.80;1.00
15296;DHT22;7749;49.964;7.890;2023-05-18T10:51:07;19.00;1.00
15296;DHT22;7749;49.964;7.890;2023-05-18T10:53:35;19.40;1.00
15296;DHT22;7749;49.964;7.890;2023-05-18T10:56:06;19.40;1.00
15296;DHT22;7749;49.964;7.890;2023-05-18T10:58:37;19.50;1.00
15296;DHT22;7749;49.964;7.890;2023-05-18T11:01:10;19.80;1.00
15296;DHT22;7749;49.964;7.890;2023-05-18T11:03:41;19.80;1.00
15296;DHT22;7749;49.964;7.890;2023-05-18T11:06:11;19.50;1.00
15296;DHT22;7749;49.964;7.890;2023-05-18T11:08:47;19.30;1.00
15296;DHT22;7749;49.964;7.890;2023-05-18T11:11:16;19.70;1.00
15296;DHT22;7749;49.964;7.890;2023-05-18T11:13:50;19.90;1.00
15296;DHT22;7749;49.964;7.890;2023-05-18T11:16:19;20.50;1.00
15296;DHT22;7749;49.964;7.890;2023-05-18T11:18:49;21.90;1.00
15296;DHT22;7749;49.964;7.890;2023-05-18T11:21:30;23.90;1.00
15296;DHT22;7749;49.964;7.890;2023-05-18T11:26:44;26.50;1.00
15296;DHT22;7749;49.964;7.890;2023-05-18T11:29:16;26.20;99.90
15296;DHT22;7749;49.964;7.890;2023-05-18T11:31:46;27.50;99.90
15296;DHT22;7749;49.964;7.890;2023-05-18T11:37:07;29.30;99.90
15296;DHT22;7749;49.964;7.890;2023-05-18T11:39:36;29.70;99.90
15296;DHT22;7749;49.964;7.890;2023-05-18T11:42:18;29.50;99.90
15296;DHT22;7749;49.964;7.890;2023-05-18T11:44:52;30.10;99.90
15296;DHT22;7749;49.964;7.890;2023-05-18T11:47:28;29.30;99.90
15296;DHT22;7749;49.964;7.890;2023-05-18T11:49:57;29.50;99.90
15296;DHT22;7749;49.964;7.890;2023-05-18T11:52:25;30.40;99.90
15296;DHT22;7749;49.964;7.890;2023-05-18T11:54:59;31.00;99.90
15296;DHT22;7749;49.964;7.890;2023-05-18T12:00:06;31.70;99.90
15296;DHT22;7749;49.964;7.890;2023-05-18T12:02:42;31.60;99.90
15296;DHT22;7749;49.964;7.890;2023-05-18T12:05:10;31.80;99.90
15296;DHT22;7749;49.964;7.890;2023-05-18T12:07:40;32.40;99.90
15296;DHT22;7749;49.964;7.890;2023-05-18T12:10:12;32.10;99.90
15296;DHT22;7749;49.964;7.890;2023-05-18T12:12:42;31.30;99.90
15296;DHT22;7749;49.964;7.890;2023-05-18T12:15:10;31.90;99.90
15296;DHT22;7749;49.964;7.890;2023-05-18T12:17:45;31.60;99.90
15296;DHT22;7749;49.964;7.890;2023-05-18T12:20:18;31.60;99.90
15296;DHT22;7749;49.964;7.890;2023-05-18T12:22:50;31.20;99.90
15296;DHT22;7749;49.964;7.890;2023-05-18T12:25:24;31.20;99.90
15296;DHT22;7749;49.964;7.890;2023-05-18T12:27:55;32.00;99.90
15296;DHT22;7749;49.964;7.890;2023-05-18T12:30:27;32.40;99.90
15296;DHT22;7749;49.964;7.890;2023-05-18T12:33:02;32.00;99.90
15296;DHT22;7749;49.964;7.890;2023-05-18T12:35:31;32.00;99.90
15296;DHT22;7749;49.964;7.890;2023-05-18T12:38:00;32.10;99.90
15296;DHT22;7749;49.964;7.890;2023-05-18T12:40:34;32.60;99.90
15296;DHT22;7749;49.964;7.890;2023-05-18T12:43:11;33.70;99.90
15296;DHT22;7749;49.964;7.890;2023-05-18T12:45:39;33.70;99.90
15296;DHT22;7749;49.964;7.890;2023-05-18T12:48:11;33.90;99.90
15296;DHT22;7749;49.964;7.890;2023-05-18T12:50:46;32.90;99.90
15296;DHT22;7749;49.964;7.890;2023-05-18T12:53:13;33.10;99.90
15296;DHT22;7749;49.964;7.890;2023-05-18T12:55:41;32.50;99.90
15296;DHT22;7749;49.964;7.890;2023-05-18T12:58:13;32.80;99.90
15296;DHT22;7749;49.964;7.890;2023-05-18T13:00:44;32.40;99.90
15296;DHT22;7749;49.964;7.890;2023-05-18T13:03:16;32.70;99.90
15296;DHT22;7749;49.964;7.890;2023-05-18T13:05:45;32.70;99.90
15296;DHT22;7749;49.964;7.890;2023-05-18T13:08:27;33.10;99.90
15296;DHT22;7749;49.964;7.890;2023-05-18T13:11:00;33.20;99.90
15296;DHT22;7749;49.964;7.890;2023-05-18T13:13:56;33.70;99.90
15296;DHT22;7749;49.964;7.890;2023-05-18T13:16:25;34.20;99.90
15296;DHT22;7749;49.964;7.890;2023-05-18T13:18:58;34.70;99.90
15296;DHT22;7749;49.964;7.890;2023-05-18T13:21:26;33.80;99.90
15296;DHT22;7749;49.964;7.890;2023-05-18T13:23:54;33.10;99.90
15296;DHT22;7749;49.964;7.890;2023-05-18T13:26:22;32.80;99.90
15296;DHT22;7749;49.964;7.890;2023-05-18T13:28:51;33.10;99.90
15296;DHT22;7749;49.964;7.890;2023-05-18T13:31:19;33.70;99.90
15296;DHT22;7749;49.964;7.890;2023-05-18T13:33:50;34.20;99.90
15296;DHT22;7749;49.964;7.890;2023-05-18T13:36:18;34.40;99.90
15296;DHT22;7749;49.964;7.890;2023-05-18T13:38:45;34.60;99.90
15296;DHT22;7749;49.964;7.890;2023-05-18T13:41:13;34.80;99.90
15296;DHT22;7749;49.964;7.890;2023-05-18T13:43:41;34.50;99.90
15296;DHT22;7749;49.964;7.890;2023-05-18T13:46:09;34.10;99.90
15296;DHT22;7749;49.964;7.890;2023-05-18T13:48:36;34.00;99.90
15296;DHT22;7749;49.964;7.890;2023-05-18T13:51:04;34.30;99.90
15296;DHT22;7749;49.964;7.890;2023-05-18T13:53:31;34.20;99.90
15296;DHT22;7749;49.964;7.890;2023-05-18T13:56:01;35.10;99.90
15296;DHT22;7749;49.964;7.890;2023-05-18T13:58:28;34.80;99.90
15296;DHT22;7749;49.964;7.890;2023-05-18T14:00:56;34.80;99.90
15296;DHT22;7749;49.964;7.890;2023-05-18T14:03:23;34.90;99.90
15296;DHT22;7749;49.964;7.890;2023-05-18T14:05:51;33.70;99.90
15296;DHT22;7749;49.964;7.890;2023-05-18T14:08:18;33.00;99.90
15296;DHT22;7749;49.964;7.890;2023-05-18T14:10:45;33.70;99.90
15296;DHT22;7749;49.964;7.890;2023-05-18T14:13:15;34.50;99.90
15296;DHT22;7749;49.964;7.890;2023-05-18T14:15:43;34.90;99.90
15296;DHT22;7749;49.964;7.890;2023-05-18T14:18:10;35.10;99.90
15296;DHT22;7749;49.964;7.890;2023-05-18T14:20:38;34.90;99.90
15296;DHT22;7749;49.964;7.890;2023-05-18T14:23:06;34.20;99.90
15296;DHT22;7749;49.964;7.890;2023-05-18T14:25:36;34.60;99.90
15296;DHT22;7749;49.964;7.890;2023-05-18T14:28:03;35.00;99.90
15296;DHT22;7749;49.964;7.890;2023-05-18T14:30:31;35.20;99.90
15296;DHT22;7749;49.964;7.890;2023-05-18T14:33:01;35.70;99.90
15296;DHT22;7749;49.964;7.890;2023-05-18T14:35:28;35.50;99.90
15296;DHT22;7749;49.964;7.890;2023-05-18T14:37:55;34.80;99.90
15296;DHT22;7749;49.964;7.890;2023-05-18T14:40:23;35.10;99.90
15296;DHT22;7749;49.964;7.890;2023-05-18T14:42:50;34.70;99.90
15296;DHT22;7749;49.964;7.890;2023-05-18T14:45:20;34.40;99.90
15296;DHT22;7749;49.964;7.890;2023-05-18T14:47:47;34.30;99.90
15296;DHT22;7749;49.964;7.890;2023-05-18T14:50:15;34.90;99.90
15296;DHT22;7749;49.964;7.890;2023-05-18T14:52:42;35.80;99.90
15296;DHT22;7749;49.964;7.890;2023-05-18T14:55:10;36.10;99.90
15296;DHT22;7749;49.964;7.890;2023-05-18T14:57:37;34.80;99.90
15296;DHT22;7749;49.964;7.890;2023-05-18T15:00:05;35.00;99.90
15296;DHT22;7749;49.964;7.890;2023-05-18T15:02:33;35.30;99.90
15296;DHT22;7749;49.964;7.890;2023-05-18T15:05:00;34.50;99.90
15296;DHT22;7749;49.964;7.890;2023-05-18T15:07:28;35.30;99.90
15296;DHT22;7749;49.964;7.890;2023-05-18T15:09:55;34.50;99.90
15296;DHT22;7749;49.964;7.890;2023-05-18T15:12:22;32.80;99.90
15296;DHT22;7749;49.964;7.890;2023-05-18T15:14:50;32.50;99.90
15296;DHT22;7749;49.964;7.890;2023-05-18T15:17:17;32.90;99.90
15296;DHT22;7749;49.964;7.890;2023-05-18T15:19:45;32.90;99.90
15296;DHT22;7749;49.964;7.890;2023-05-18T15:22:13;33.40;99.90
15296;DHT22;7749;49.964;7.890;2023-05-18T15:24:40;33.40;99.90
15296;DHT22;7749;49.964;7.890;2023-05-18T15:27:08;32.30;99.90
15296;DHT22;7749;49.964;7.890;2023-05-18T15:29:39;31.60;99.90
15296;DHT22;7749;49.964;7.890;2023-05-18T15:32:06;32.60;99.90
15296;DHT22;7749;49.964;7.890;2023-05-18T15:34:34;33.70;99.90
15296;DHT22;7749;49.964;7.890;2023-05-18T15:37:03;33.60;99.90
15296;DHT22;7749;49.964;7.890;2023-05-18T15:39:30;34.30;99.90
15296;DHT22;7749;49.964;7.890;2023-05-18T15:41:57;34.50;99.90
15296;DHT22;7749;49.964;7.890;2023-05-18T15:44:27;35.30;99.90
15296;DHT22;7749;49.964;7.890;2023-05-18T15:46:56;34.50;99.90
15296;DHT22;7749;49.964;7.890;2023-05-18T15:49:23;32.70;99.90
15296;DHT22;7749;49.964;7.890;2023-05-18T15:51:51;31.10;99.90
15296;DHT22;7749;49.964;7.890;2023-05-18T15:54:19;30.00;99.90
15296;DHT22;7749;49.964;7.890;2023-05-18T15:56:46;30.30;99.90
15296;DHT22;7749;49.964;7.890;2023-05-18T15:59:13;31.20;99.90
15296;DHT22;7749;49.964;7.890;2023-05-18T16:01:41;30.90;99.90
15296;DHT22;7749;49.964;7.890;2023-05-18T16:04:08;30.70;99.90
15296;DHT22;7749;49.964;7.890;2023-05-18T16:06:35;29.90;99.90
15296;DHT22;7749;49.964;7.890;2023-05-18T16:09:06;28.90;99.90
15296;DHT22;7749;49.964;7.890;2023-05-18T16:11:33;28.10;99.90
15296;DHT22;7749;49.964;7.890;2023-05-18T16:14:04;27.50;99.90
15296;DHT22;7749;49.964;7.890;2023-05-18T16:16:31;26.50;99.90
15296;DHT22;7749;49.964;7.890;2023-05-18T16:18:58;25.80;99.90
15296;DHT22;7749;49.964;7.890;2023-05-18T16:21:26;25.00;99.90
15296;DHT22;7749;49.964;7.890;2023-05-18T16:23:54;25.90;99.90